Terminal Aerodrome Forecast
Issued by NWS Austin/San Antonio, TX

Current Version | Previous Version | Text Only | Print | Product List | Glossary Off
Versions: 1 2 3 4 5 6 7 8 9 10 11 12 13 14 15 16 17 18 19

000
FTUS44 KEWX 182300
TAFAUS
TAF
KAUS 182325Z 1900/2006 06008KT P6SM OVC009
     FM190100 04005KT P6SM OVC007
     FM190300 03005KT 3SM BR VCSH OVC004
     FM190600 01008KT 3SM -SHRA BR OVC003
      TEMPO 1907/1911 1SM TSRA BR BKN004 OVC035CB
     FM191600 01010KT 5SM BR VCSH OVC008
     FM191800 01011KT P6SM OVC015
     FM200200 01007KT P6SM OVC025=

USA.gov is the U.S. government's official web portal to all federal, state and local government web resources and services.